Mariq — SVA2152 — position and weather

sailwx.info

Track history (hours):
 
Tides and Currents Weather Stations Pressure Air Temp Water Temp Dewpoint Dewpoint Depression Visibility Wind Speed Wind Dir Waves Ship Positions

Mariq

Last reported at 2017-Feb-11 01:33 UTC. Time now 2017-Feb-26 07:40 UTC.
Position N 37°20' E 025°52'.
Warning: this ship's position is 15 days out of date.

Length 57 m.

Type: Tanker. MMSI: 239758424.

Date/timePositionNaut miles runAvg speedWind from/ knotsBaromVisibWave heightAir tempDewpointWater temp
2017-Feb-11 01:33N 37°20' E 025°52'16 6.6
2017-Feb-10 23:10N 37°22' E 025°32'4 6.3
2017-Feb-10 22:33N 37°21' E 025°27'8 7.5
2017-Feb-10 21:33N 37°20' E 025°18'7 7.3
2017-Feb-10 20:33N 37°20' E 025°09'9 7.7
2017-Feb-10 19:23N 37°20' E 024°57'7 8.1
2017-Feb-10 18:33N 37°21' E 024°49'37 0.9
2017-Feb-08 23:31N 37°36' E 024°06'  
2017-Feb-05 05:33N 37°21' E 024°51'8 7.7
2017-Feb-05 04:32N 37°20' E 025°01'7 7.0
2017-Feb-05 03:34N 37°21' E 025°09'7 7.0
2017-Feb-05 02:34N 37°21' E 025°18'8 8.2
2017-Feb-05 01:34N 37°21' E 025°28'12 8.4
2017-Feb-05 00:11N 37°19' E 025°43'6 9.1
2017-Feb-04 23:34N 37°19' E 025°50'  
Track history (hours):
 
Tides and Currents Weather Stations Pressure Air Temp Water Temp Dewpoint Dewpoint Depression Visibility Wind Speed Wind Dir Waves Ship Positions

Mariq

Last reported at 2017-Feb-11 01:33 UTC. Time now 2017-Feb-26 07:40 UTC.
Position N 37°20' E 025°52'.
Warning: this ship's position is 15 days out of date.

Length 57 m.

Type: Tanker. MMSI: 239758424.

Date/timePositionNaut miles runAvg speedWind from/ knotsBaromVisibWave heightAir tempDewpointWater temp
2017-Feb-11 01:33N 37°20' E 025°52'16 6.6
2017-Feb-10 23:10N 37°22' E 025°32'4 6.3
2017-Feb-10 22:33N 37°21' E 025°27'8 7.5
2017-Feb-10 21:33N 37°20' E 025°18'7 7.3
2017-Feb-10 20:33N 37°20' E 025°09'9 7.7
2017-Feb-10 19:23N 37°20' E 024°57'7 8.1
2017-Feb-10 18:33N 37°21' E 024°49'37 0.9
2017-Feb-08 23:31N 37°36' E 024°06'  
2017-Feb-05 05:33N 37°21' E 024°51'8 7.7
2017-Feb-05 04:32N 37°20' E 025°01'7 7.0
2017-Feb-05 03:34N 37°21' E 025°09'7 7.0
2017-Feb-05 02:34N 37°21' E 025°18'8 8.2
2017-Feb-05 01:34N 37°21' E 025°28'12 8.4
2017-Feb-05 00:11N 37°19' E 025°43'6 9.1
2017-Feb-04 23:34N 37°19' E 025°50'  

Dump ship's entire track history